sensor_id;sensor_type;location;lat;lon;timestamp;pressure;altitude;pressure_sealevel;temperature;humidity
47330;BME280;33060;50.178;7.570;2022-07-22T00:02:04;97506.78;;;17.58;76.02
47330;BME280;33060;50.178;7.570;2022-07-22T00:04:31;97499.75;;;17.57;76.10
47330;BME280;33060;50.178;7.570;2022-07-22T00:06:58;97502.69;;;17.54;76.17
47330;BME280;33060;50.178;7.570;2022-07-22T00:09:25;97497.94;;;17.48;76.24
47330;BME280;33060;50.178;7.570;2022-07-22T00:11:52;97505.09;;;17.38;76.67
47330;BME280;33060;50.178;7.570;2022-07-22T00:14:18;97501.00;;;17.34;76.85
47330;BME280;33060;50.178;7.570;2022-07-22T00:16:45;97495.94;;;17.31;77.03
47330;BME280;33060;50.178;7.570;2022-07-22T00:19:12;97500.69;;;17.37;77.08
47330;BME280;33060;50.178;7.570;2022-07-22T00:21:39;97495.50;;;17.35;77.48
47330;BME280;33060;50.178;7.570;2022-07-22T00:24:06;97493.53;;;17.37;77.23
47330;BME280;33060;50.178;7.570;2022-07-22T00:26:33;97494.41;;;17.38;76.96
47330;BME280;33060;50.178;7.570;2022-07-22T00:29:00;97489.34;;;17.35;77.42
47330;BME280;33060;50.178;7.570;2022-07-22T00:31:27;97492.56;;;17.29;77.37
47330;BME280;33060;50.178;7.570;2022-07-22T00:33:53;97489.50;;;17.33;77.72
47330;BME280;33060;50.178;7.570;2022-07-22T00:36:20;97489.19;;;17.36;77.43
47330;BME280;33060;50.178;7.570;2022-07-22T00:38:47;97484.28;;;17.32;77.71
47330;BME280;33060;50.178;7.570;2022-07-22T00:41:13;97484.16;;;17.23;78.40
47330;BME280;33060;50.178;7.570;2022-07-22T00:46:26;97483.44;;;17.21;78.22
47330;BME280;33060;50.178;7.570;2022-07-22T00:48:54;97484.69;;;17.17;78.59
47330;BME280;33060;50.178;7.570;2022-07-22T00:51:23;97481.31;;;17.15;78.91
47330;BME280;33060;50.178;7.570;2022-07-22T00:53:51;97485.38;;;17.19;78.79
47330;BME280;33060;50.178;7.570;2022-07-22T00:56:19;97495.63;;;17.14;78.74
47330;BME280;33060;50.178;7.570;2022-07-22T00:58:47;97488.88;;;17.10;78.91
47330;BME280;33060;50.178;7.570;2022-07-22T01:01:16;97490.31;;;17.14;79.33
47330;BME280;33060;50.178;7.570;2022-07-22T01:03:43;97488.88;;;17.20;79.68
47330;BME280;33060;50.178;7.570;2022-07-22T01:06:15;97484.53;;;17.09;79.40
47330;BME280;33060;50.178;7.570;2022-07-22T01:08:42;97477.09;;;17.03;79.89
47330;BME280;33060;50.178;7.570;2022-07-22T01:11:11;97474.69;;;17.00;79.80
47330;BME280;33060;50.178;7.570;2022-07-22T01:13:39;97475.25;;;16.94;79.85
47330;BME280;33060;50.178;7.570;2022-07-22T01:16:08;97477.63;;;16.87;80.43
47330;BME280;33060;50.178;7.570;2022-07-22T01:18:36;97480.72;;;17.02;79.43
47330;BME280;33060;50.178;7.570;2022-07-22T01:21:05;97483.66;;;16.99;79.39
47330;BME280;33060;50.178;7.570;2022-07-22T01:23:33;97482.53;;;16.92;79.56
47330;BME280;33060;50.178;7.570;2022-07-22T01:26:01;97476.34;;;16.91;79.62
47330;BME280;33060;50.178;7.570;2022-07-22T01:28:28;97476.19;;;16.83;79.94
47330;BME280;33060;50.178;7.570;2022-07-22T01:30:55;97472.00;;;16.81;79.77
47330;BME280;33060;50.178;7.570;2022-07-22T01:33:22;97466.81;;;16.89;79.46
47330;BME280;33060;50.178;7.570;2022-07-22T01:35:51;97468.22;;;16.93;79.58
47330;BME280;33060;50.178;7.570;2022-07-22T01:38:18;97467.13;;;16.95;79.55
47330;BME280;33060;50.178;7.570;2022-07-22T01:40:46;97480.69;;;16.83;79.38
47330;BME280;33060;50.178;7.570;2022-07-22T01:43:13;97477.28;;;16.71;79.68
47330;BME280;33060;50.178;7.570;2022-07-22T01:45:46;97472.59;;;16.63;79.79
47330;BME280;33060;50.178;7.570;2022-07-22T01:48:15;97473.72;;;16.61;78.98
47330;BME280;33060;50.178;7.570;2022-07-22T01:50:42;97471.91;;;16.61;78.92
47330;BME280;33060;50.178;7.570;2022-07-22T01:53:09;97474.53;;;16.52;78.76
47330;BME280;33060;50.178;7.570;2022-07-22T01:55:37;97478.03;;;16.52;78.89
47330;BME280;33060;50.178;7.570;2022-07-22T01:58:04;97483.19;;;16.44;79.16
47330;BME280;33060;50.178;7.570;2022-07-22T02:00:34;97482.88;;;16.37;79.75
47330;BME280;33060;50.178;7.570;2022-07-22T02:03:02;97477.59;;;16.47;79.12
47330;BME280;33060;50.178;7.570;2022-07-22T02:05:30;97475.91;;;16.46;79.34
47330;BME280;33060;50.178;7.570;2022-07-22T02:08:05;97475.22;;;16.54;80.26
47330;BME280;33060;50.178;7.570;2022-07-22T02:10:51;97479.00;;;16.51;78.75
47330;BME280;33060;50.178;7.570;2022-07-22T02:13:19;97472.97;;;16.49;78.81
47330;BME280;33060;50.178;7.570;2022-07-22T02:15:45;97476.44;;;16.40;78.73
47330;BME280;33060;50.178;7.570;2022-07-22T02:18:14;97476.97;;;16.34;78.78
47330;BME280;33060;50.178;7.570;2022-07-22T02:20:44;97478.34;;;16.28;78.66
47330;BME280;33060;50.178;7.570;2022-07-22T02:23:11;97480.16;;;16.28;78.86
47330;BME280;33060;50.178;7.570;2022-07-22T02:25:39;97483.22;;;16.23;78.48
47330;BME280;33060;50.178;7.570;2022-07-22T02:28:06;97483.34;;;16.22;78.68
47330;BME280;33060;50.178;7.570;2022-07-22T02:30:34;97471.06;;;16.30;78.39
47330;BME280;33060;50.178;7.570;2022-07-22T02:33:01;97473.41;;;16.24;78.34
47330;BME280;33060;50.178;7.570;2022-07-22T02:35:27;97485.31;;;16.20;78.72
47330;BME280;33060;50.178;7.570;2022-07-22T02:37:57;97470.22;;;16.30;79.87
47330;BME280;33060;50.178;7.570;2022-07-22T02:40:24;97478.34;;;16.28;78.56
47330;BME280;33060;50.178;7.570;2022-07-22T02:42:51;97484.66;;;16.27;78.71
47330;BME280;33060;50.178;7.570;2022-07-22T02:45:18;97470.91;;;16.32;78.59
47330;BME280;33060;50.178;7.570;2022-07-22T02:47:47;97476.69;;;16.37;78.52
47330;BME280;33060;50.178;7.570;2022-07-22T02:50:13;97474.78;;;16.49;80.38
47330;BME280;33060;50.178;7.570;2022-07-22T02:52:40;97468.72;;;16.37;78.14
47330;BME280;33060;50.178;7.570;2022-07-22T02:55:08;97471.06;;;16.30;78.82
47330;BME280;33060;50.178;7.570;2022-07-22T02:57:35;97467.28;;;16.33;78.82
47330;BME280;33060;50.178;7.570;2022-07-22T03:00:03;97471.25;;;16.38;78.42
47330;BME280;33060;50.178;7.570;2022-07-22T03:02:34;97477.25;;;16.40;78.30
47330;BME280;33060;50.178;7.570;2022-07-22T03:05:03;97482.03;;;16.37;78.62
47330;BME280;33060;50.178;7.570;2022-07-22T03:07:31;97477.69;;;16.36;78.21
47330;BME280;33060;50.178;7.570;2022-07-22T03:09:58;97481.56;;;16.32;78.66
47330;BME280;33060;50.178;7.570;2022-07-22T03:12:35;97491.38;;;16.31;79.29
47330;BME280;33060;50.178;7.570;2022-07-22T03:15:03;97489.13;;;16.27;78.72
47330;BME280;33060;50.178;7.570;2022-07-22T03:17:34;97494.19;;;16.30;78.56
47330;BME280;33060;50.178;7.570;2022-07-22T03:20:07;97494.69;;;16.24;78.53
47330;BME280;33060;50.178;7.570;2022-07-22T03:22:35;97496.78;;;16.20;78.52
47330;BME280;33060;50.178;7.570;2022-07-22T03:25:04;97495.81;;;16.21;78.58
47330;BME280;33060;50.178;7.570;2022-07-22T03:27:31;97493.16;;;16.21;78.37
47330;BME280;33060;50.178;7.570;2022-07-22T03:29:57;97485.75;;;16.25;78.30
47330;BME280;33060;50.178;7.570;2022-07-22T03:32:24;97492.16;;;16.22;78.00
47330;BME280;33060;50.178;7.570;2022-07-22T03:34:51;97488.53;;;16.23;80.05
47330;BME280;33060;50.178;7.570;2022-07-22T03:37:19;97482.63;;;16.50;78.81
47330;BME280;33060;50.178;7.570;2022-07-22T03:39:46;97486.41;;;16.48;77.54
47330;BME280;33060;50.178;7.570;2022-07-22T03:42:13;97481.22;;;16.46;79.08
47330;BME280;33060;50.178;7.570;2022-07-22T03:44:45;97486.91;;;16.62;77.47
47330;BME280;33060;50.178;7.570;2022-07-22T03:47:21;97484.75;;;16.56;78.74
47330;BME280;33060;50.178;7.570;2022-07-22T03:49:49;97489.66;;;16.51;77.50
47330;BME280;33060;50.178;7.570;2022-07-22T03:52:22;97485.00;;;16.44;77.77
47330;BME280;33060;50.178;7.570;2022-07-22T03:54:49;97484.59;;;16.48;78.27
47330;BME280;33060;50.178;7.570;2022-07-22T03:57:16;97481.88;;;16.38;77.60
47330;BME280;33060;50.178;7.570;2022-07-22T03:59:43;97487.50;;;16.35;77.45
47330;BME280;33060;50.178;7.570;2022-07-22T04:02:10;97482.69;;;16.29;77.70
47330;BME280;33060;50.178;7.570;2022-07-22T04:04:37;97490.28;;;16.34;77.62
47330;BME280;33060;50.178;7.570;2022-07-22T04:07:04;97489.91;;;16.48;77.99
47330;BME280;33060;50.178;7.570;2022-07-22T04:09:34;97483.38;;;16.52;76.98
47330;BME280;33060;50.178;7.570;2022-07-22T04:12:02;97482.22;;;16.45;76.79
47330;BME280;33060;50.178;7.570;2022-07-22T04:14:33;97479.00;;;16.51;77.88
47330;BME280;33060;50.178;7.570;2022-07-22T04:16:59;97484.59;;;16.48;76.97
47330;BME280;33060;50.178;7.570;2022-07-22T04:19:26;97477.03;;;16.44;76.31
47330;BME280;33060;50.178;7.570;2022-07-22T04:21:55;97476.03;;;16.45;76.12
47330;BME280;33060;50.178;7.570;2022-07-22T04:24:25;97476.59;;;16.48;76.21
47330;BME280;33060;50.178;7.570;2022-07-22T04:26:52;97466.50;;;16.42;76.20
47330;BME280;33060;50.178;7.570;2022-07-22T04:29:20;97473.56;;;16.53;77.10
47330;BME280;33060;50.178;7.570;2022-07-22T04:31:46;97468.31;;;16.72;76.46
47330;BME280;33060;50.178;7.570;2022-07-22T04:34:16;97472.53;;;16.75;75.76
47330;BME280;33060;50.178;7.570;2022-07-22T04:36:43;97467.19;;;16.75;76.00
47330;BME280;33060;50.178;7.570;2022-07-22T04:39:09;97470.44;;;16.78;76.12
47330;BME280;33060;50.178;7.570;2022-07-22T04:41:42;97475.34;;;16.83;75.72
47330;BME280;33060;50.178;7.570;2022-07-22T04:44:12;97473.38;;;16.75;76.66
47330;BME280;33060;50.178;7.570;2022-07-22T04:46:39;97474.38;;;16.84;76.96
47330;BME280;33060;50.178;7.570;2022-07-22T04:49:07;97470.03;;;16.83;76.86
47330;BME280;33060;50.178;7.570;2022-07-22T04:51:33;97470.03;;;16.83;76.39
47330;BME280;33060;50.178;7.570;2022-07-22T04:54:04;97461.78;;;16.95;75.68
47330;BME280;33060;50.178;7.570;2022-07-22T04:56:36;97459.66;;;16.89;76.14
47330;BME280;33060;50.178;7.570;2022-07-22T04:59:03;97449.72;;;16.91;75.81
47330;BME280;33060;50.178;7.570;2022-07-22T05:01:39;97446.22;;;17.01;76.00
47330;BME280;33060;50.178;7.570;2022-07-22T05:04:06;97458.16;;;17.16;76.53
47330;BME280;33060;50.178;7.570;2022-07-22T05:06:33;97452.38;;;17.01;75.69
47330;BME280;33060;50.178;7.570;2022-07-22T05:09:01;97454.97;;;17.12;75.38
47330;BME280;33060;50.178;7.570;2022-07-22T05:11:30;97469.00;;;17.34;74.27
47330;BME280;33060;50.178;7.570;2022-07-22T05:13:57;97462.38;;;17.28;74.48
47330;BME280;33060;50.178;7.570;2022-07-22T05:16:24;97463.38;;;17.27;74.17
47330;BME280;33060;50.178;7.570;2022-07-22T05:18:51;97455.22;;;17.29;74.06
47330;BME280;33060;50.178;7.570;2022-07-22T05:21:19;97451.59;;;17.30;74.74
47330;BME280;33060;50.178;7.570;2022-07-22T05:23:46;97457.47;;;17.52;73.56
47330;BME280;33060;50.178;7.570;2022-07-22T05:26:14;97449.91;;;17.87;71.70
47330;BME280;33060;50.178;7.570;2022-07-22T05:28:41;97462.00;;;17.91;74.16
47330;BME280;33060;50.178;7.570;2022-07-22T05:31:07;97463.28;;;18.33;72.15
47330;BME280;33060;50.178;7.570;2022-07-22T05:33:36;97464.97;;;18.34;70.81
47330;BME280;33060;50.178;7.570;2022-07-22T05:36:06;97465.09;;;18.33;70.92
47330;BME280;33060;50.178;7.570;2022-07-22T05:38:42;97458.78;;;18.34;72.10
47330;BME280;33060;50.178;7.570;2022-07-22T05:41:09;97458.91;;;18.32;70.00
47330;BME280;33060;50.178;7.570;2022-07-22T05:43:37;97462.31;;;18.15;70.65
47330;BME280;33060;50.178;7.570;2022-07-22T05:46:05;97460.41;;;18.07;70.60
47330;BME280;33060;50.178;7.570;2022-07-22T05:48:34;97457.50;;;17.91;71.31
47330;BME280;33060;50.178;7.570;2022-07-22T05:51:01;97460.72;;;17.56;72.31
47330;BME280;33060;50.178;7.570;2022-07-22T05:53:30;97459.31;;;17.52;72.43
47330;BME280;33060;50.178;7.570;2022-07-22T05:55:57;97458.06;;;17.66;72.42
47330;BME280;33060;50.178;7.570;2022-07-22T05:58:32;97448.53;;;17.83;73.07
47330;BME280;33060;50.178;7.570;2022-07-22T06:00:59;97443.31;;;17.91;72.21
47330;BME280;33060;50.178;7.570;2022-07-22T06:03:26;97460.25;;;18.09;71.35
47330;BME280;33060;50.178;7.570;2022-07-22T06:05:52;97462.25;;;18.07;71.17
47330;BME280;33060;50.178;7.570;2022-07-22T06:08:19;97458.63;;;17.79;72.36
47330;BME280;33060;50.178;7.570;2022-07-22T06:10:49;97457.22;;;17.75;71.37
47330;BME280;33060;50.178;7.570;2022-07-22T06:13:21;97457.91;;;17.87;71.20
47330;BME280;33060;50.178;7.570;2022-07-22T06:15:48;97461.69;;;17.94;70.62
47330;BME280;33060;50.178;7.570;2022-07-22T06:18:15;97459.47;;;17.79;72.25
47330;BME280;33060;50.178;7.570;2022-07-22T06:20:42;97454.09;;;17.89;70.81
47330;BME280;33060;50.178;7.570;2022-07-22T06:23:09;97453.00;;;17.82;70.53
47330;BME280;33060;50.178;7.570;2022-07-22T06:25:36;97460.53;;;18.06;70.17
47330;BME280;33060;50.178;7.570;2022-07-22T06:28:17;97450.59;;;18.45;68.80
47330;BME280;33060;50.178;7.570;2022-07-22T06:30:43;97456.47;;;18.49;66.83
47330;BME280;33060;50.178;7.570;2022-07-22T06:33:12;97458.91;;;18.42;66.12
47330;BME280;33060;50.178;7.570;2022-07-22T06:35:39;97460.22;;;18.19;67.64
47330;BME280;33060;50.178;7.570;2022-07-22T06:38:09;97460.31;;;18.36;66.45
47330;BME280;33060;50.178;7.570;2022-07-22T06:41:21;97460.44;;;18.45;65.62
47330;BME280;33060;50.178;7.570;2022-07-22T06:44:03;97460.88;;;18.77;64.97
47330;BME280;33060;50.178;7.570;2022-07-22T06:46:45;97455.59;;;19.13;63.62
47330;BME280;33060;50.178;7.570;2022-07-22T06:49:15;97453.53;;;19.07;62.73
47330;BME280;33060;50.178;7.570;2022-07-22T06:51:44;97460.81;;;19.32;63.41
47330;BME280;33060;50.178;7.570;2022-07-22T06:54:11;97446.38;;;20.04;63.00
47330;BME280;33060;50.178;7.570;2022-07-22T06:56:37;97455.78;;;19.65;60.21
47330;BME280;33060;50.178;7.570;2022-07-22T06:59:06;97451.56;;;19.62;61.33
47330;BME280;33060;50.178;7.570;2022-07-22T07:01:33;97452.78;;;19.32;62.03
47330;BME280;33060;50.178;7.570;2022-07-22T07:04:00;97456.06;;;19.26;63.32
47330;BME280;33060;50.178;7.570;2022-07-22T07:06:28;97454.00;;;19.56;62.50
47330;BME280;33060;50.178;7.570;2022-07-22T07:09:02;97448.75;;;19.82;62.47
47330;BME280;33060;50.178;7.570;2022-07-22T07:11:30;97452.19;;;19.74;61.68
47330;BME280;33060;50.178;7.570;2022-07-22T07:13:57;97441.06;;;19.87;61.22
47330;BME280;33060;50.178;7.570;2022-07-22T07:16:24;97445.47;;;19.96;60.90
47330;BME280;33060;50.178;7.570;2022-07-22T07:18:51;97452.94;;;19.84;61.30
47330;BME280;33060;50.178;7.570;2022-07-22T07:21:18;97447.31;;;20.21;60.59
47330;BME280;33060;50.178;7.570;2022-07-22T07:23:45;97445.63;;;19.94;61.08
47330;BME280;33060;50.178;7.570;2022-07-22T07:26:13;97445.84;;;19.75;61.24
47330;BME280;33060;50.178;7.570;2022-07-22T07:28:40;97438.94;;;19.90;60.29
47330;BME280;33060;50.178;7.570;2022-07-22T07:31:15;97435.16;;;20.95;58.37
47330;BME280;33060;50.178;7.570;2022-07-22T07:33:42;97426.88;;;20.80;57.79
47330;BME280;33060;50.178;7.570;2022-07-22T07:36:10;97425.19;;;21.30;56.69
47330;BME280;33060;50.178;7.570;2022-07-22T07:38:42;97415.28;;;21.63;57.00
47330;BME280;33060;50.178;7.570;2022-07-22T07:41:14;97425.53;;;21.84;54.27
47330;BME280;33060;50.178;7.570;2022-07-22T07:43:41;97419.50;;;21.41;55.70
47330;BME280;33060;50.178;7.570;2022-07-22T07:46:09;97422.84;;;21.59;56.25
47330;BME280;33060;50.178;7.570;2022-07-22T07:48:36;97424.53;;;21.44;56.48
47330;BME280;33060;50.178;7.570;2022-07-22T07:51:03;97420.81;;;21.45;56.10
47330;BME280;33060;50.178;7.570;2022-07-22T07:53:31;97423.19;;;21.48;57.92
47330;BME280;33060;50.178;7.570;2022-07-22T07:55:59;97426.34;;;21.35;57.52
47330;BME280;33060;50.178;7.570;2022-07-22T07:58:27;97415.81;;;21.58;57.34
47330;BME280;33060;50.178;7.570;2022-07-22T08:00:54;97413.13;;;21.66;54.89
47330;BME280;33060;50.178;7.570;2022-07-22T08:03:21;97412.47;;;21.64;54.69
47330;BME280;33060;50.178;7.570;2022-07-22T08:05:48;97406.75;;;21.51;54.99
47330;BME280;33060;50.178;7.570;2022-07-22T08:08:19;97399.72;;;21.58;55.13
47330;BME280;33060;50.178;7.570;2022-07-22T08:10:47;97397.38;;;21.47;54.50
47330;BME280;33060;50.178;7.570;2022-07-22T08:13:32;97399.53;;;21.43;54.61
47330;BME280;33060;50.178;7.570;2022-07-22T08:16:28;97404.41;;;21.32;55.07
47330;BME280;33060;50.178;7.570;2022-07-22T08:18:55;97398.69;;;21.76;53.32
47330;BME280;33060;50.178;7.570;2022-07-22T08:21:23;97395.16;;;21.91;54.07
47330;BME280;33060;50.178;7.570;2022-07-22T08:23:54;97397.66;;;22.01;52.79
47330;BME280;33060;50.178;7.570;2022-07-22T08:26:21;97391.47;;;22.09;52.71
47330;BME280;33060;50.178;7.570;2022-07-22T08:28:56;97394.38;;;22.38;51.71
47330;BME280;33060;50.178;7.570;2022-07-22T08:31:23;97394.97;;;22.17;51.49
47330;BME280;33060;50.178;7.570;2022-07-22T08:33:50;97391.03;;;22.75;52.51
47330;BME280;33060;50.178;7.570;2022-07-22T08:36:25;97390.66;;;22.95;50.61
47330;BME280;33060;50.178;7.570;2022-07-22T08:38:52;97397.91;;;23.17;50.38
47330;BME280;33060;50.178;7.570;2022-07-22T08:41:21;97386.16;;;23.10;51.78
47330;BME280;33060;50.178;7.570;2022-07-22T08:43:48;97390.88;;;23.39;51.16
47330;BME280;33060;50.178;7.570;2022-07-22T08:46:15;97388.84;;;23.64;49.07
47330;BME280;33060;50.178;7.570;2022-07-22T08:49:08;97390.59;;;23.26;48.27
47330;BME280;33060;50.178;7.570;2022-07-22T08:51:53;97389.78;;;23.25;48.98
47330;BME280;33060;50.178;7.570;2022-07-22T08:54:26;97373.16;;;23.67;49.91
47330;BME280;33060;50.178;7.570;2022-07-22T08:56:54;97376.41;;;24.15;49.18
47330;BME280;33060;50.178;7.570;2022-07-22T08:59:22;97378.31;;;24.21;49.07
47330;BME280;33060;50.178;7.570;2022-07-22T09:02:03;97374.25;;;24.70;47.00
47330;BME280;33060;50.178;7.570;2022-07-22T09:04:31;97377.69;;;24.78;48.11
47330;BME280;33060;50.178;7.570;2022-07-22T09:06:58;97376.75;;;24.86;47.70
47330;BME280;33060;50.178;7.570;2022-07-22T09:09:31;97371.81;;;24.75;45.78
47330;BME280;33060;50.178;7.570;2022-07-22T09:15:51;97390.56;;;23.94;47.42
47330;BME280;33060;50.178;7.570;2022-07-22T09:18:52;97390.88;;;24.14;46.56
47330;BME280;33060;50.178;7.570;2022-07-22T09:21:44;97382.44;;;24.17;46.88
47330;BME280;33060;50.178;7.570;2022-07-22T09:24:36;97384.88;;;24.42;46.12
47330;BME280;33060;50.178;7.570;2022-07-22T09:27:22;97386.44;;;24.66;45.33
47330;BME280;33060;50.178;7.570;2022-07-22T09:30:12;97385.63;;;24.36;46.93
47330;BME280;33060;50.178;7.570;2022-07-22T09:32:46;97378.63;;;24.56;45.91
47330;BME280;33060;50.178;7.570;2022-07-22T09:36:01;97377.25;;;24.45;45.24
47330;BME280;33060;50.178;7.570;2022-07-22T09:38:31;97375.63;;;24.80;45.04
47330;BME280;33060;50.178;7.570;2022-07-22T09:41:03;97373.41;;;24.69;45.46
47330;BME280;33060;50.178;7.570;2022-07-22T09:43:35;97370.97;;;24.74;45.86
47330;BME280;33060;50.178;7.570;2022-07-22T09:46:02;97364.31;;;24.70;44.41
47330;BME280;33060;50.178;7.570;2022-07-22T09:48:51;97369.13;;;24.75;45.90
47330;BME280;33060;50.178;7.570;2022-07-22T09:51:33;97369.53;;;24.93;45.74
47330;BME280;33060;50.178;7.570;2022-07-22T09:54:22;97357.00;;;25.43;46.78
47330;BME280;33060;50.178;7.570;2022-07-22T09:56:50;97354.97;;;25.95;45.66
47330;BME280;33060;50.178;7.570;2022-07-22T09:59:18;97354.63;;;26.04;44.39
47330;BME280;33060;50.178;7.570;2022-07-22T10:01:58;97349.09;;;26.19;44.35
47330;BME280;33060;50.178;7.570;2022-07-22T10:04:28;97349.16;;;26.32;43.74
47330;BME280;33060;50.178;7.570;2022-07-22T10:06:58;97339.59;;;25.95;43.28
47330;BME280;33060;50.178;7.570;2022-07-22T10:09:30;97347.34;;;26.05;43.12
47330;BME280;33060;50.178;7.570;2022-07-22T10:11:58;97349.88;;;26.06;43.26
47330;BME280;33060;50.178;7.570;2022-07-22T10:14:25;97347.31;;;25.98;43.64
47330;BME280;33060;50.178;7.570;2022-07-22T10:16:57;97344.31;;;26.21;44.09
47330;BME280;33060;50.178;7.570;2022-07-22T10:19:32;97344.13;;;26.57;44.07
47330;BME280;33060;50.178;7.570;2022-07-22T10:21:58;97339.00;;;26.75;42.27
47330;BME280;33060;50.178;7.570;2022-07-22T10:24:25;97337.50;;;26.60;43.91
47330;BME280;33060;50.178;7.570;2022-07-22T10:26:57;97338.41;;;26.39;41.88
47330;BME280;33060;50.178;7.570;2022-07-22T10:37:44;97327.81;;;26.92;42.52
47330;BME280;33060;50.178;7.570;2022-07-22T10:40:12;97322.63;;;26.97;44.01
47330;BME280;33060;50.178;7.570;2022-07-22T10:45:35;97313.78;;;27.69;42.76
47330;BME280;33060;50.178;7.570;2022-07-22T10:48:04;97302.28;;;27.87;42.00
47330;BME280;33060;50.178;7.570;2022-07-22T10:53:15;97306.06;;;27.40;42.37
47330;BME280;33060;50.178;7.570;2022-07-22T10:56:02;97302.06;;;27.62;41.39
47330;BME280;33060;50.178;7.570;2022-07-22T11:01:04;97303.25;;;26.93;40.98
47330;BME280;33060;50.178;7.570;2022-07-22T11:03:33;97294.47;;;26.78;42.53
47330;BME280;33060;50.178;7.570;2022-07-22T11:06:32;97294.81;;;26.62;42.44
47330;BME280;33060;50.178;7.570;2022-07-22T11:09:07;97296.97;;;26.93;42.67
47330;BME280;33060;50.178;7.570;2022-07-22T11:11:45;97291.47;;;27.21;40.93
47330;BME280;33060;50.178;7.570;2022-07-22T11:14:24;97291.13;;;26.83;39.50
47330;BME280;33060;50.178;7.570;2022-07-22T11:16:56;97281.00;;;27.04;43.79
47330;BME280;33060;50.178;7.570;2022-07-22T11:19:25;97276.22;;;27.53;41.50
47330;BME280;33060;50.178;7.570;2022-07-22T11:21:56;97285.00;;;27.22;40.36
47330;BME280;33060;50.178;7.570;2022-07-22T11:24:24;97280.81;;;27.59;40.83
47330;BME280;33060;50.178;7.570;2022-07-22T11:26:53;97290.19;;;27.23;40.34
47330;BME280;33060;50.178;7.570;2022-07-22T11:29:32;97287.19;;;26.92;40.10
47330;BME280;33060;50.178;7.570;2022-07-22T11:32:04;97277.84;;;26.94;40.89
47330;BME280;33060;50.178;7.570;2022-07-22T11:34:32;97275.84;;;27.29;40.43
47330;BME280;33060;50.178;7.570;2022-07-22T11:36:58;97284.22;;;26.73;40.18
47330;BME280;33060;50.178;7.570;2022-07-22T11:39:27;97282.81;;;26.77;40.17
47330;BME280;33060;50.178;7.570;2022-07-22T11:41:56;97281.50;;;26.60;41.51
47330;BME280;33060;50.178;7.570;2022-07-22T11:44:26;97273.72;;;27.05;41.21
47330;BME280;33060;50.178;7.570;2022-07-22T11:46:53;97273.91;;;27.10;40.27
47330;BME280;33060;50.178;7.570;2022-07-22T11:49:27;97262.91;;;27.05;39.50
47330;BME280;33060;50.178;7.570;2022-07-22T11:51:53;97274.09;;;26.95;39.68
47330;BME280;33060;50.178;7.570;2022-07-22T11:54:21;97268.84;;;26.81;40.41
47330;BME280;33060;50.178;7.570;2022-07-22T11:56:48;97269.41;;;26.56;40.67
47330;BME280;33060;50.178;7.570;2022-07-22T11:59:22;97272.69;;;26.45;41.13
47330;BME280;33060;50.178;7.570;2022-07-22T12:01:49;97270.75;;;26.87;40.44
47330;BME280;33060;50.178;7.570;2022-07-22T12:04:21;97263.22;;;26.82;40.77
47330;BME280;33060;50.178;7.570;2022-07-22T12:06:48;97259.50;;;26.29;40.62
47330;BME280;33060;50.178;7.570;2022-07-22T12:09:26;97253.91;;;26.37;40.93
47330;BME280;33060;50.178;7.570;2022-07-22T12:11:57;97251.50;;;26.55;40.01
47330;BME280;33060;50.178;7.570;2022-07-22T12:14:34;97247.09;;;26.47;39.64
47330;BME280;33060;50.178;7.570;2022-07-22T12:17:04;97252.34;;;26.56;40.59
47330;BME280;33060;50.178;7.570;2022-07-22T12:19:34;97234.28;;;26.83;39.72
47330;BME280;33060;50.178;7.570;2022-07-22T12:22:09;97242.81;;;26.80;39.45
47330;BME280;33060;50.178;7.570;2022-07-22T12:24:41;97239.09;;;26.94;39.75
47330;BME280;33060;50.178;7.570;2022-07-22T12:27:12;97234.53;;;26.94;39.73
47330;BME280;33060;50.178;7.570;2022-07-22T12:32:09;97222.91;;;27.14;38.60
47330;BME280;33060;50.178;7.570;2022-07-22T12:34:39;97223.94;;;27.13;38.80
47330;BME280;33060;50.178;7.570;2022-07-22T12:42:47;97232.00;;;26.18;41.01
47330;BME280;33060;50.178;7.570;2022-07-22T12:45:27;97231.09;;;26.53;40.69
47330;BME280;33060;50.178;7.570;2022-07-22T12:48:06;97224.91;;;26.79;40.17
47330;BME280;33060;50.178;7.570;2022-07-22T12:50:40;97221.66;;;27.23;39.48
47330;BME280;33060;50.178;7.570;2022-07-22T12:53:12;97217.03;;;27.43;39.40
47330;BME280;33060;50.178;7.570;2022-07-22T12:55:49;97203.53;;;27.37;39.99
47330;BME280;33060;50.178;7.570;2022-07-22T12:58:19;97213.09;;;27.46;39.64
47330;BME280;33060;50.178;7.570;2022-07-22T13:00:50;97213.94;;;27.07;40.20
47330;BME280;33060;50.178;7.570;2022-07-22T13:03:18;97213.94;;;27.07;40.88
47330;BME280;33060;50.178;7.570;2022-07-22T13:05:50;97214.31;;;26.97;40.51
47330;BME280;33060;50.178;7.570;2022-07-22T13:08:17;97215.41;;;27.16;40.17
47330;BME280;33060;50.178;7.570;2022-07-22T13:10:47;97216.03;;;27.24;39.39
47330;BME280;33060;50.178;7.570;2022-07-22T13:13:14;97206.03;;;27.31;39.44
47330;BME280;33060;50.178;7.570;2022-07-22T13:15:41;97199.94;;;26.96;39.37
47330;BME280;33060;50.178;7.570;2022-07-22T13:18:07;97194.16;;;27.06;40.12
47330;BME280;33060;50.178;7.570;2022-07-22T13:20:34;97197.47;;;26.95;40.50
47330;BME280;33060;50.178;7.570;2022-07-22T13:23:01;97192.84;;;26.82;40.47
47330;BME280;33060;50.178;7.570;2022-07-22T13:25:28;97191.16;;;26.55;40.82
47330;BME280;33060;50.178;7.570;2022-07-22T13:27:55;97187.00;;;26.59;40.60
47330;BME280;33060;50.178;7.570;2022-07-22T13:30:22;97179.06;;;26.44;40.04
47330;BME280;33060;50.178;7.570;2022-07-22T13:32:50;97181.19;;;26.82;41.29
47330;BME280;33060;50.178;7.570;2022-07-22T13:35:17;97191.19;;;26.88;40.51
47330;BME280;33060;50.178;7.570;2022-07-22T13:37:44;97190.34;;;26.67;40.17
47330;BME280;33060;50.178;7.570;2022-07-22T13:40:12;97192.78;;;26.49;39.59
47330;BME280;33060;50.178;7.570;2022-07-22T13:42:39;97193.19;;;26.46;41.18
47330;BME280;33060;50.178;7.570;2022-07-22T13:45:06;97187.84;;;26.59;40.94
47330;BME280;33060;50.178;7.570;2022-07-22T13:47:35;97185.31;;;26.51;40.33